createdAt,value
2022-10-22T00:00:12.039Z,15.85
2022-10-22T00:02:39.140Z,18.05
2022-10-22T00:05:06.748Z,19.25
2022-10-22T00:07:33.753Z,20.30
2022-10-22T00:10:00.721Z,21.23
2022-10-22T00:12:29.376Z,16.88
2022-10-22T00:14:56.641Z,21.05
2022-10-22T00:17:27.635Z,16.75
2022-10-22T00:19:59.472Z,18.05
2022-10-22T00:22:26.875Z,20.40
2022-10-22T00:35:35.522Z,15.68
2022-10-22T00:38:05.255Z,14.57
2022-10-22T00:40:36.184Z,15.38
2022-10-22T00:43:03.893Z,14.13
2022-10-22T00:45:34.032Z,12.23
2022-10-22T00:48:17.224Z,17.23
2022-10-22T00:50:50.442Z,16.58
2022-10-22T00:53:23.988Z,15.07
2022-10-22T00:55:54.669Z,15.43
2022-10-22T00:58:28.051Z,15.77
2022-10-22T01:00:56.210Z,18.23
2022-10-22T01:03:23.401Z,15.88
2022-10-22T01:05:57.451Z,16.27
2022-10-22T01:08:59.462Z,16.42
2022-10-22T01:11:44.277Z,18.00
2022-10-22T01:14:46.067Z,14.57
2022-10-22T01:17:34.602Z,16.15
2022-10-22T01:20:11.846Z,15.57
2022-10-22T01:23:02.753Z,15.48
2022-10-22T01:25:37.905Z,17.08
2022-10-22T01:28:14.275Z,13.00
2022-10-22T01:30:44.094Z,13.07
2022-10-22T01:33:14.184Z,17.67
2022-10-22T01:35:45.835Z,19.17
2022-10-22T01:38:19.918Z,13.40
2022-10-22T01:40:55.912Z,13.13
2022-10-22T01:43:23.491Z,13.20
2022-10-22T01:45:59.576Z,14.88
2022-10-22T01:49:13.069Z,19.08
2022-10-22T01:52:15.171Z,14.90
2022-10-22T01:55:02.394Z,12.25
2022-10-22T01:57:41.212Z,12.43
2022-10-22T02:00:14.690Z,14.90
2022-10-22T02:03:02.651Z,13.68
2022-10-22T02:05:37.135Z,14.93
2022-10-22T02:08:16.306Z,14.30
2022-10-22T02:10:47.922Z,14.82
2022-10-22T02:13:47.659Z,13.93
2022-10-22T02:16:22.472Z,14.60
2022-10-22T02:18:54.367Z,14.88
2022-10-22T02:21:22.680Z,14.05
2022-10-22T02:23:54.497Z,16.17
2022-10-22T02:26:24.959Z,16.35
2022-10-22T02:29:10.900Z,16.13
2022-10-22T02:31:42.198Z,12.77
2022-10-22T02:34:19.468Z,14.00
2022-10-22T02:36:50.404Z,15.00
2022-10-22T02:39:21.475Z,17.98
2022-10-22T02:41:49.875Z,16.90
2022-10-22T02:44:29.761Z,16.77
2022-10-22T02:46:57.500Z,16.23
2022-10-22T02:49:25.813Z,13.73
2022-10-22T02:51:53.361Z,14.82
2022-10-22T02:54:24.065Z,13.45
2022-10-22T02:56:52.270Z,13.55
2022-10-22T02:59:24.698Z,16.70
2022-10-22T03:01:59.003Z,15.88
2022-10-22T03:04:29.069Z,15.75
2022-10-22T03:06:58.673Z,14.93
2022-10-22T03:09:30.080Z,14.32
2022-10-22T03:12:02.491Z,12.38
2022-10-22T03:14:29.642Z,14.23
2022-10-22T03:16:58.657Z,16.67
2022-10-22T03:30:08.408Z,16.83
2022-10-22T03:32:35.622Z,13.68
2022-10-22T03:35:02.788Z,16.33
2022-10-22T03:37:32.325Z,13.27
2022-10-22T03:40:00.095Z,16.50
2022-10-22T03:42:28.979Z,14.07
2022-10-22T03:44:56.514Z,12.85
2022-10-22T03:47:26.366Z,15.40
2022-10-22T03:49:55.472Z,16.30
2022-10-22T03:52:22.397Z,12.18
2022-10-22T03:54:49.657Z,15.55
2022-10-22T03:57:16.552Z,15.77
2022-10-22T04:00:23.292Z,15.50
2022-10-22T04:02:50.171Z,16.42
2022-10-22T04:05:17.587Z,17.70
2022-10-22T04:07:45.203Z,15.82
2022-10-22T04:10:13.317Z,18.77
2022-10-22T04:12:43.235Z,13.40
2022-10-22T04:15:10.668Z,14.65
2022-10-22T04:17:43.855Z,17.65
2022-10-22T04:20:11.617Z,20.38
2022-10-22T04:22:38.962Z,17.42
2022-10-22T04:25:06.788Z,19.25
2022-10-22T04:27:36.936Z,15.90
2022-10-22T04:30:07.182Z,20.70
2022-10-22T04:32:33.970Z,15.85
2022-10-22T04:35:02.664Z,13.68
2022-10-22T04:37:30.116Z,14.50
2022-10-22T04:39:58.227Z,15.90
2022-10-22T04:42:26.216Z,19.73
2022-10-22T04:44:53.115Z,19.77
2022-10-22T04:47:20.352Z,17.17
2022-10-22T04:49:48.017Z,17.27
2022-10-22T04:52:14.867Z,20.15
2022-10-22T04:54:46.890Z,17.08
2022-10-22T04:57:14.629Z,16.02
2022-10-22T04:59:43.962Z,15.65
2022-10-22T05:02:13.322Z,12.98
2022-10-22T05:04:45.152Z,17.65
2022-10-22T05:07:12.586Z,13.30
2022-10-22T05:09:40.638Z,18.35
2022-10-22T05:12:09.502Z,24.83
2022-10-22T05:14:42.639Z,17.30
2022-10-22T05:17:13.512Z,19.10
2022-10-22T05:19:43.431Z,16.17
2022-10-22T05:22:11.797Z,24.98
2022-10-22T05:24:38.766Z,19.65
2022-10-22T05:27:06.003Z,14.77
2022-10-22T05:29:37.576Z,19.73
2022-10-22T05:32:06.558Z,18.02
2022-10-22T05:34:34.125Z,19.27
2022-10-22T05:37:01.415Z,21.63
2022-10-22T05:39:28.880Z,17.52
2022-10-22T05:41:55.971Z,18.80
2022-10-22T05:44:24.076Z,14.57
2022-10-22T05:52:08.050Z,13.93
2022-10-22T05:54:35.596Z,17.30
2022-10-22T05:57:03.335Z,20.83
2022-10-22T05:59:30.815Z,19.98
2022-10-22T06:02:04.648Z,15.52
2022-10-22T06:04:34.317Z,19.30
2022-10-22T06:07:03.098Z,16.23
2022-10-22T06:09:42.135Z,13.75
2022-10-22T06:12:13.147Z,17.20
2022-10-22T06:14:43.022Z,16.98
2022-10-22T06:17:12.675Z,18.40
2022-10-22T06:19:39.380Z,12.85
2022-10-22T06:22:06.236Z,13.25
2022-10-22T06:24:34.250Z,11.60
2022-10-22T06:27:03.169Z,18.45
2022-10-22T06:29:37.331Z,10.30
2022-10-22T06:32:04.040Z,13.68
2022-10-22T06:34:31.437Z,14.02
2022-10-22T06:36:58.937Z,15.57
2022-10-22T06:39:26.215Z,11.32
2022-10-22T06:41:53.486Z,14.65
2022-10-22T06:44:30.963Z,13.88
2022-10-22T06:46:59.080Z,15.77
2022-10-22T06:49:26.374Z,17.30
2022-10-22T06:51:54.250Z,15.57
2022-10-22T06:54:22.214Z,14.80
2022-10-22T06:56:54.461Z,14.75
2022-10-22T06:59:22.696Z,17.00
2022-10-22T07:01:50.238Z,18.77
2022-10-22T07:04:17.275Z,16.63
2022-10-22T07:06:43.954Z,16.50
2022-10-22T07:09:11.760Z,19.20
2022-10-22T07:11:46.095Z,15.07
2022-10-22T07:14:14.862Z,21.02
2022-10-22T07:16:48.282Z,20.60
2022-10-22T07:19:15.694Z,16.23
2022-10-22T07:21:44.102Z,24.80
2022-10-22T07:24:15.204Z,20.17
2022-10-22T07:26:42.103Z,20.80
2022-10-22T07:29:11.780Z,22.25
2022-10-22T07:31:39.925Z,27.23
2022-10-22T07:34:09.656Z,20.80
2022-10-22T07:36:36.693Z,22.23
2022-10-22T07:39:06.392Z,20.80
2022-10-22T07:41:34.523Z,20.52
2022-10-22T07:44:02.575Z,25.38
2022-10-22T07:46:30.736Z,27.77
2022-10-22T07:48:57.742Z,28.33
2022-10-22T07:51:28.458Z,23.23
2022-10-22T07:53:55.418Z,24.10
2022-10-22T07:56:23.930Z,22.55
2022-10-22T07:58:51.763Z,21.83
2022-10-22T08:01:27.639Z,16.92
2022-10-22T08:03:56.217Z,21.80
2022-10-22T08:06:25.867Z,15.43
2022-10-22T08:08:54.511Z,16.52
2022-10-22T08:14:02.938Z,15.88
2022-10-22T08:38:06.908Z,12.23
2022-10-22T09:12:57.513Z,24.23
2022-10-22T09:15:24.853Z,23.00
2022-10-22T09:37:34.853Z,16.47
2022-10-22T10:01:31.468Z,21.87
2022-10-22T10:06:38.477Z,20.53
2022-10-22T10:09:25.538Z,17.30
2022-10-22T10:12:21.049Z,19.07
2022-10-22T10:23:47.962Z,25.60
2022-10-22T10:26:55.404Z,18.40
2022-10-22T10:32:25.731Z,21.00
2022-10-22T10:35:02.591Z,1.07
2022-10-22T10:43:29.567Z,17.40
2022-10-22T10:46:12.439Z,25.73
2022-10-22T10:49:14.294Z,22.23
2022-10-22T10:52:02.229Z,22.50
2022-10-22T10:55:04.270Z,23.27
2022-10-22T10:58:00.870Z,27.03
2022-10-22T11:00:34.508Z,23.93
2022-10-22T11:03:57.166Z,24.93
2022-10-22T11:06:25.798Z,26.10
2022-10-22T11:09:08.621Z,21.40
2022-10-22T11:12:07.050Z,28.07
2022-10-22T11:15:24.764Z,23.63
2022-10-22T11:17:56.232Z,22.80
2022-10-22T11:20:42.657Z,22.03
2022-10-22T11:23:31.363Z,21.20
2022-10-22T11:26:01.946Z,20.30
2022-10-22T11:28:46.114Z,22.77
2022-10-22T11:31:18.703Z,22.23
2022-10-22T11:34:00.535Z,22.30
2022-10-22T11:36:33.598Z,20.00
2022-10-22T11:39:03.951Z,20.30
2022-10-22T11:41:33.663Z,18.70
2022-10-22T11:44:29.039Z,17.57
2022-10-22T11:47:00.433Z,25.53
2022-10-22T11:52:42.748Z,19.57
2022-10-22T11:55:59.164Z,18.50
2022-10-22T11:58:52.191Z,15.40
2022-10-22T12:01:39.667Z,18.37
2022-10-22T12:04:12.970Z,15.37
2022-10-22T12:07:30.068Z,14.60
2022-10-22T12:09:58.802Z,12.50
2022-10-22T12:12:31.481Z,12.63
2022-10-22T12:15:00.401Z,14.50
2022-10-22T12:17:29.831Z,13.63
2022-10-22T12:20:12.037Z,13.47
2022-10-22T12:22:39.999Z,11.47
2022-10-22T12:25:19.066Z,10.33
2022-10-22T12:27:55.546Z,10.63
2022-10-22T12:30:29.590Z,12.73
2022-10-22T12:33:01.246Z,9.43
2022-10-22T12:35:32.099Z,9.53
2022-10-22T12:38:14.122Z,9.30
2022-10-22T12:40:45.979Z,13.00
2022-10-22T12:43:21.354Z,8.77
2022-10-22T12:45:53.437Z,10.43
2022-10-22T12:48:40.856Z,10.63
2022-10-22T12:51:15.258Z,11.63
2022-10-22T12:53:49.373Z,10.50
2022-10-22T12:56:37.111Z,9.30
2022-10-22T12:59:28.940Z,9.17
2022-10-22T13:01:57.337Z,10.20
2022-10-22T13:04:28.580Z,11.03
2022-10-22T13:07:08.073Z,12.20
2022-10-22T13:09:56.963Z,11.70
2022-10-22T13:12:56.899Z,14.70
2022-10-22T13:15:38.265Z,22.90
2022-10-22T13:18:17.347Z,11.93
2022-10-22T13:21:21.491Z,11.17
2022-10-22T13:24:00.855Z,12.37
2022-10-22T13:26:40.026Z,11.50
2022-10-22T13:29:14.703Z,13.77
2022-10-22T13:31:51.484Z,14.63
2022-10-22T13:34:26.586Z,16.53
2022-10-22T13:36:54.767Z,11.37
2022-10-22T13:39:26.586Z,11.90
2022-10-22T13:41:57.524Z,13.27
2022-10-22T13:44:25.436Z,17.20
2022-10-22T13:46:53.602Z,15.13
2022-10-22T13:49:25.732Z,13.97
2022-10-22T13:51:54.382Z,12.80
2022-10-22T13:54:24.210Z,10.10
2022-10-22T13:56:51.839Z,14.68
2022-10-22T13:59:22.981Z,9.70
2022-10-22T14:01:55.081Z,15.07
2022-10-22T14:04:23.650Z,13.53
2022-10-22T14:06:58.824Z,15.40
2022-10-22T14:09:32.502Z,18.43
2022-10-22T14:11:59.565Z,14.13
2022-10-22T14:14:26.580Z,14.70
2022-10-22T14:16:56.333Z,16.67
2022-10-22T14:22:05.512Z,20.10
2022-10-22T14:24:34.731Z,15.77
2022-10-22T14:27:02.755Z,16.53
2022-10-22T14:29:31.081Z,18.27
2022-10-22T14:32:00.542Z,15.10
2022-10-22T14:34:28.565Z,17.90
2022-10-22T14:36:55.866Z,19.63
2022-10-22T14:39:24.723Z,19.00
2022-10-22T14:41:53.219Z,18.40
2022-10-22T14:44:20.132Z,15.37
2022-10-22T14:46:51.519Z,20.00
2022-10-22T14:49:20.061Z,16.33
2022-10-22T14:51:48.494Z,17.60
2022-10-22T14:54:21.378Z,19.43
2022-10-22T14:56:52.221Z,23.23
2022-10-22T14:59:20.407Z,18.63
2022-10-22T15:01:51.412Z,17.13
2022-10-22T15:04:20.238Z,14.40
2022-10-22T15:06:49.741Z,16.90
2022-10-22T15:12:01.644Z,12.10
2022-10-22T15:17:16.577Z,14.63
2022-10-22T15:19:46.115Z,12.60
2022-10-22T15:22:16.661Z,13.43
2022-10-22T15:24:50.133Z,14.40
2022-10-22T15:27:20.777Z,14.33
2022-10-22T15:29:58.675Z,13.57
2022-10-22T15:33:22.659Z,13.40
2022-10-22T15:35:54.918Z,15.25
2022-10-22T15:38:22.652Z,14.55
2022-10-22T15:40:50.158Z,15.15
2022-10-22T15:43:20.638Z,15.77
2022-10-22T15:46:10.566Z,17.20
2022-10-22T15:48:37.845Z,16.10
2022-10-22T15:51:18.443Z,16.15
2022-10-22T15:53:58.242Z,15.98
2022-10-22T15:56:32.256Z,22.73
2022-10-22T15:59:03.230Z,18.08
2022-10-22T16:01:33.730Z,22.40
2022-10-22T16:04:04.981Z,21.33
2022-10-22T16:06:47.303Z,25.77
2022-10-22T16:09:19.244Z,23.20
2022-10-22T16:11:48.552Z,21.15
2022-10-22T16:14:20.109Z,24.15
2022-10-22T16:16:50.590Z,23.67
2022-10-22T16:19:25.003Z,24.13
2022-10-22T16:22:04.520Z,31.50
2022-10-22T16:24:34.913Z,27.75
2022-10-22T16:27:16.778Z,23.90
2022-10-22T16:29:44.465Z,27.00
2022-10-22T16:32:20.081Z,28.02
2022-10-22T16:34:48.664Z,39.05
2022-10-22T16:37:17.828Z,31.52
2022-10-22T16:45:20.256Z,27.40
2022-10-22T16:47:49.441Z,31.00
2022-10-22T16:50:20.160Z,31.03
2022-10-22T16:52:49.186Z,27.02
2022-10-22T16:55:16.532Z,21.33
2022-10-22T16:57:52.049Z,21.50
2022-10-22T17:00:27.917Z,25.20
2022-10-22T17:03:09.195Z,24.63
2022-10-22T17:05:37.238Z,22.53
2022-10-22T17:08:19.107Z,21.60
2022-10-22T17:10:52.542Z,23.07
2022-10-22T17:13:23.585Z,26.03
2022-10-22T17:15:52.152Z,29.10
2022-10-22T17:18:19.410Z,25.27
2022-10-22T17:20:48.020Z,24.15
2022-10-22T17:23:20.539Z,24.50
2022-10-22T17:25:49.535Z,23.83
2022-10-22T17:28:20.600Z,21.47
2022-10-22T17:30:47.823Z,26.03
2022-10-22T17:33:18.051Z,27.63
2022-10-22T17:35:46.642Z,20.43
2022-10-22T17:38:13.561Z,26.63
2022-10-22T17:40:44.109Z,25.47
2022-10-22T17:43:16.329Z,27.53
2022-10-22T17:45:45.932Z,18.40
2022-10-22T17:48:17.484Z,28.30
2022-10-22T17:50:48.291Z,22.17
2022-10-22T17:53:18.932Z,21.48
2022-10-22T17:55:48.440Z,25.03
2022-10-22T17:58:16.784Z,24.77
2022-10-22T18:00:44.140Z,29.65
2022-10-22T18:03:12.316Z,22.47
2022-10-22T18:05:42.190Z,25.83
2022-10-22T18:08:09.124Z,23.27
2022-10-22T18:10:40.087Z,23.90
2022-10-22T18:13:09.146Z,22.13
2022-10-22T18:15:37.049Z,18.40
2022-10-22T18:18:06.447Z,18.10
2022-10-22T18:20:34.057Z,26.13
2022-10-22T18:23:06.821Z,18.50
2022-10-22T18:25:41.444Z,18.40
2022-10-22T18:28:17.510Z,21.57
2022-10-22T18:30:48.528Z,15.95
2022-10-22T18:33:19.090Z,16.90
2022-10-22T18:36:08.767Z,17.57
2022-10-22T18:38:41.968Z,16.60
2022-10-22T18:41:15.813Z,21.13
2022-10-22T18:43:48.863Z,15.37
2022-10-22T18:46:21.200Z,20.93
2022-10-22T18:48:50.537Z,14.77
2022-10-22T18:51:18.986Z,14.88
2022-10-22T18:54:04.703Z,19.50
2022-10-22T18:56:33.005Z,15.98
2022-10-22T18:59:02.704Z,14.43
2022-10-22T19:01:32.223Z,14.53
2022-10-22T19:04:02.975Z,15.65
2022-10-22T19:06:35.933Z,18.55
2022-10-22T19:09:05.636Z,17.60
2022-10-22T19:11:33.832Z,18.27
2022-10-22T19:14:00.831Z,17.73
2022-10-22T19:16:32.278Z,16.92
2022-10-22T19:19:05.488Z,15.05
2022-10-22T19:21:35.680Z,17.65
2022-10-22T19:24:02.607Z,19.95
2022-10-22T19:26:32.242Z,19.63
2022-10-22T19:29:00.202Z,19.80
2022-10-22T19:31:32.515Z,19.75
2022-10-22T19:34:03.469Z,19.48
2022-10-22T19:36:33.050Z,18.42
2022-10-22T19:39:01.116Z,20.43
2022-10-22T19:41:33.849Z,18.30
2022-10-22T19:44:02.195Z,19.58
2022-10-22T19:46:34.417Z,18.30
2022-10-22T19:49:07.126Z,16.20
2022-10-22T19:51:36.886Z,16.42
2022-10-22T19:54:09.736Z,17.58
2022-10-22T19:56:38.806Z,18.77
2022-10-22T19:59:06.119Z,18.80
2022-10-22T20:01:33.783Z,18.48
2022-10-22T20:04:04.120Z,20.38
2022-10-22T20:06:31.153Z,20.63
2022-10-22T20:08:59.709Z,17.35
2022-10-22T20:11:32.271Z,17.88
2022-10-22T20:14:02.167Z,19.77
2022-10-22T20:16:30.612Z,19.30
2022-10-22T20:19:02.407Z,19.15
2022-10-22T20:21:32.068Z,21.65
2022-10-22T20:23:59.230Z,22.17
2022-10-22T20:29:12.040Z,21.80
2022-10-22T20:31:39.886Z,19.70
2022-10-22T20:34:11.210Z,17.88
2022-10-22T20:36:39.691Z,19.65
2022-10-22T20:39:10.550Z,18.67
2022-10-22T20:41:42.184Z,15.52
2022-10-22T20:44:17.097Z,18.77
2022-10-22T20:46:49.183Z,15.20
2022-10-22T20:49:24.658Z,16.92
2022-10-22T20:51:53.308Z,19.63
2022-10-22T20:54:22.018Z,16.10
2022-10-22T20:56:53.734Z,17.15
2022-10-22T20:59:22.210Z,21.17
2022-10-22T21:02:00.829Z,23.35
2022-10-22T21:04:29.937Z,15.70
2022-10-22T21:07:10.373Z,17.00
2022-10-22T21:09:37.736Z,15.77
2022-10-22T21:12:09.428Z,16.55
2022-10-22T21:14:40.908Z,25.92
2022-10-22T21:17:10.219Z,16.17
2022-10-22T21:19:37.108Z,19.30
2022-10-22T21:22:06.348Z,22.15
2022-10-22T21:24:34.266Z,25.95
2022-10-22T21:27:14.021Z,24.77
2022-10-22T21:30:08.428Z,21.80
2022-10-22T21:32:37.445Z,24.95
2022-10-22T21:35:06.495Z,18.45
2022-10-22T21:40:32.309Z,21.65
2022-10-22T21:43:05.113Z,21.40
2022-10-22T21:45:43.852Z,23.52
2022-10-22T21:48:19.919Z,22.23
2022-10-22T21:51:01.566Z,20.65
2022-10-22T21:56:43.926Z,17.38
2022-10-22T21:59:14.904Z,19.80
2022-10-22T22:01:51.838Z,20.13
2022-10-22T22:04:19.744Z,17.38
2022-10-22T22:06:49.721Z,16.80
2022-10-22T22:09:20.277Z,17.05
2022-10-22T22:11:48.656Z,18.92
2022-10-22T22:14:24.684Z,17.67
2022-10-22T22:19:34.522Z,15.20
2022-10-22T22:22:01.995Z,13.25
2022-10-22T22:24:32.862Z,16.85
2022-10-22T22:27:14.507Z,18.15
2022-10-22T22:29:45.094Z,24.45
2022-10-22T22:32:17.855Z,21.50
2022-10-22T22:34:50.430Z,18.38
2022-10-22T22:37:18.742Z,18.75
2022-10-22T22:39:47.673Z,18.58
2022-10-22T22:42:17.127Z,17.60
2022-10-22T22:44:45.985Z,17.70
2022-10-22T22:47:16.055Z,18.45
2022-10-22T22:49:52.343Z,16.77
2022-10-22T22:54:49.127Z,18.08
2022-10-22T22:57:29.156Z,19.40
2022-10-22T23:00:01.337Z,17.73
2022-10-22T23:02:29.385Z,20.80
2022-10-22T23:04:58.489Z,20.48
2022-10-22T23:07:29.922Z,21.75
2022-10-22T23:12:50.031Z,23.65
2022-10-22T23:15:18.952Z,22.70
2022-10-22T23:17:46.323Z,21.30
2022-10-22T23:20:13.490Z,19.90
2022-10-22T23:22:40.496Z,27.17
2022-10-22T23:25:08.255Z,25.98
2022-10-22T23:27:35.087Z,22.80
2022-10-22T23:30:02.413Z,29.02
2022-10-22T23:32:33.004Z,20.48
2022-10-22T23:35:00.173Z,19.23
2022-10-22T23:37:27.667Z,21.25
2022-10-22T23:39:57.053Z,18.98
2022-10-22T23:42:23.991Z,22.17
2022-10-22T23:44:53.598Z,21.33
2022-10-22T23:47:20.976Z,22.08
2022-10-22T23:49:52.075Z,20.02
2022-10-22T23:52:19.898Z,20.83
2022-10-22T23:54:49.038Z,21.17
2022-10-22T23:57:16.342Z,27.65
2022-10-22T23:59:43.533Z,21.73
